sensor_id;sensor_type;location;lat;lon;timestamp;P1;durP1;ratioP1;P2;durP2;ratioP2
2486;SDS011;1254;49.144;8.212;2022-07-23T00:01:46;11.80;;;10.80;;
2486;SDS011;1254;49.144;8.212;2022-07-23T00:04:13;11.27;;;10.47;;
2486;SDS011;1254;49.144;8.212;2022-07-23T00:06:39;10.83;;;9.83;;
2486;SDS011;1254;49.144;8.212;2022-07-23T00:09:06;11.47;;;10.47;;
2486;SDS011;1254;49.144;8.212;2022-07-23T00:11:32;11.07;;;9.77;;
2486;SDS011;1254;49.144;8.212;2022-07-23T00:13:58;11.33;;;10.43;;
2486;SDS011;1254;49.144;8.212;2022-07-23T00:16:25;10.73;;;9.73;;
2486;SDS011;1254;49.144;8.212;2022-07-23T00:18:51;10.63;;;9.83;;
2486;SDS011;1254;49.144;8.212;2022-07-23T00:21:18;12.03;;;10.63;;
2486;SDS011;1254;49.144;8.212;2022-07-23T00:23:44;11.53;;;10.53;;
2486;SDS011;1254;49.144;8.212;2022-07-23T00:26:11;11.23;;;10.23;;
2486;SDS011;1254;49.144;8.212;2022-07-23T00:28:37;11.40;;;10.50;;
2486;SDS011;1254;49.144;8.212;2022-07-23T00:31:04;11.40;;;10.30;;
2486;SDS011;1254;49.144;8.212;2022-07-23T00:33:30;11.13;;;10.20;;
2486;SDS011;1254;49.144;8.212;2022-07-23T00:35:56;10.40;;;9.47;;
2486;SDS011;1254;49.144;8.212;2022-07-23T00:38:23;10.30;;;9.60;;
2486;SDS011;1254;49.144;8.212;2022-07-23T00:40:49;10.13;;;9.43;;
2486;SDS011;1254;49.144;8.212;2022-07-23T00:43:16;10.47;;;9.50;;
2486;SDS011;1254;49.144;8.212;2022-07-23T00:45:42;10.97;;;9.97;;
2486;SDS011;1254;49.144;8.212;2022-07-23T00:48:09;10.60;;;9.73;;
2486;SDS011;1254;49.144;8.212;2022-07-23T00:50:35;10.80;;;9.93;;
2486;SDS011;1254;49.144;8.212;2022-07-23T00:53:01;10.27;;;9.47;;
2486;SDS011;1254;49.144;8.212;2022-07-23T00:55:28;11.67;;;10.67;;
2486;SDS011;1254;49.144;8.212;2022-07-23T00:57:54;11.73;;;10.77;;
2486;SDS011;1254;49.144;8.212;2022-07-23T01:00:21;11.83;;;10.80;;
2486;SDS011;1254;49.144;8.212;2022-07-23T01:02:48;11.87;;;9.93;;
2486;SDS011;1254;49.144;8.212;2022-07-23T01:05:14;11.87;;;10.97;;
2486;SDS011;1254;49.144;8.212;2022-07-23T01:07:43;14.13;;;10.83;;
2486;SDS011;1254;49.144;8.212;2022-07-23T01:10:10;11.30;;;10.40;;
2486;SDS011;1254;49.144;8.212;2022-07-23T01:12:55;10.40;;;9.60;;
2486;SDS011;1254;49.144;8.212;2022-07-23T01:15:23;10.80;;;9.90;;
2486;SDS011;1254;49.144;8.212;2022-07-23T01:17:49;11.17;;;10.17;;
2486;SDS011;1254;49.144;8.212;2022-07-23T01:20:16;11.57;;;10.53;;
2486;SDS011;1254;49.144;8.212;2022-07-23T01:22:44;12.20;;;11.27;;
2486;SDS011;1254;49.144;8.212;2022-07-23T01:25:11;12.07;;;11.10;;
2486;SDS011;1254;49.144;8.212;2022-07-23T01:27:37;16.33;;;11.50;;
2486;SDS011;1254;49.144;8.212;2022-07-23T01:30:04;11.10;;;10.27;;
2486;SDS011;1254;49.144;8.212;2022-07-23T01:32:31;11.73;;;10.73;;
2486;SDS011;1254;49.144;8.212;2022-07-23T01:34:57;10.77;;;9.87;;
2486;SDS011;1254;49.144;8.212;2022-07-23T01:37:24;12.83;;;11.23;;
2486;SDS011;1254;49.144;8.212;2022-07-23T01:39:50;11.77;;;10.77;;
2486;SDS011;1254;49.144;8.212;2022-07-23T01:42:17;11.73;;;10.73;;
2486;SDS011;1254;49.144;8.212;2022-07-23T01:44:43;12.23;;;10.80;;
2486;SDS011;1254;49.144;8.212;2022-07-23T01:47:09;12.63;;;11.33;;
2486;SDS011;1254;49.144;8.212;2022-07-23T01:49:36;12.40;;;11.50;;
2486;SDS011;1254;49.144;8.212;2022-07-23T01:52:02;10.80;;;10.00;;
2486;SDS011;1254;49.144;8.212;2022-07-23T01:54:32;11.47;;;10.57;;
2486;SDS011;1254;49.144;8.212;2022-07-23T01:56:59;11.73;;;10.60;;
2486;SDS011;1254;49.144;8.212;2022-07-23T01:59:27;11.73;;;10.83;;
2486;SDS011;1254;49.144;8.212;2022-07-23T02:01:53;13.87;;;10.70;;
2486;SDS011;1254;49.144;8.212;2022-07-23T02:04:20;11.60;;;10.80;;
2486;SDS011;1254;49.144;8.212;2022-07-23T02:06:48;12.13;;;11.10;;
2486;SDS011;1254;49.144;8.212;2022-07-23T02:09:15;11.97;;;10.97;;
2486;SDS011;1254;49.144;8.212;2022-07-23T02:11:41;15.20;;;12.10;;
2486;SDS011;1254;49.144;8.212;2022-07-23T02:14:08;11.70;;;10.80;;
2486;SDS011;1254;49.144;8.212;2022-07-23T02:16:34;11.87;;;10.97;;
2486;SDS011;1254;49.144;8.212;2022-07-23T02:19:02;13.83;;;12.10;;
2486;SDS011;1254;49.144;8.212;2022-07-23T02:21:29;15.90;;;11.30;;
2486;SDS011;1254;49.144;8.212;2022-07-23T02:23:55;12.70;;;11.47;;
2486;SDS011;1254;49.144;8.212;2022-07-23T02:26:22;11.77;;;10.80;;
2486;SDS011;1254;49.144;8.212;2022-07-23T02:28:49;14.87;;;11.93;;
2486;SDS011;1254;49.144;8.212;2022-07-23T02:31:15;11.93;;;11.00;;
2486;SDS011;1254;49.144;8.212;2022-07-23T02:33:42;11.80;;;10.90;;
2486;SDS011;1254;49.144;8.212;2022-07-23T02:36:08;12.80;;;11.43;;
2486;SDS011;1254;49.144;8.212;2022-07-23T02:38:35;13.53;;;12.40;;
2486;SDS011;1254;49.144;8.212;2022-07-23T02:41:01;12.50;;;11.40;;
2486;SDS011;1254;49.144;8.212;2022-07-23T02:43:27;12.40;;;11.40;;
2486;SDS011;1254;49.144;8.212;2022-07-23T02:45:54;12.60;;;11.40;;
2486;SDS011;1254;49.144;8.212;2022-07-23T02:48:20;13.23;;;11.77;;
2486;SDS011;1254;49.144;8.212;2022-07-23T02:50:47;12.60;;;11.50;;
2486;SDS011;1254;49.144;8.212;2022-07-23T02:53:13;13.30;;;12.10;;
2486;SDS011;1254;49.144;8.212;2022-07-23T02:55:40;12.37;;;11.27;;
2486;SDS011;1254;49.144;8.212;2022-07-23T02:58:06;13.43;;;12.17;;
2486;SDS011;1254;49.144;8.212;2022-07-23T03:00:32;11.90;;;10.83;;
2486;SDS011;1254;49.144;8.212;2022-07-23T03:02:59;12.17;;;11.03;;
2486;SDS011;1254;49.144;8.212;2022-07-23T03:05:25;11.93;;;10.83;;
2486;SDS011;1254;49.144;8.212;2022-07-23T03:07:52;12.37;;;11.37;;
2486;SDS011;1254;49.144;8.212;2022-07-23T03:10:18;12.20;;;11.13;;
2486;SDS011;1254;49.144;8.212;2022-07-23T03:12:44;11.80;;;10.93;;
2486;SDS011;1254;49.144;8.212;2022-07-23T03:15:11;12.27;;;11.27;;
2486;SDS011;1254;49.144;8.212;2022-07-23T03:17:37;11.70;;;10.70;;
2486;SDS011;1254;49.144;8.212;2022-07-23T03:20:04;12.73;;;11.43;;
2486;SDS011;1254;49.144;8.212;2022-07-23T03:22:31;12.43;;;11.33;;
2486;SDS011;1254;49.144;8.212;2022-07-23T03:24:57;13.07;;;11.97;;
2486;SDS011;1254;49.144;8.212;2022-07-23T03:27:24;12.40;;;11.30;;
2486;SDS011;1254;49.144;8.212;2022-07-23T03:29:53;12.20;;;11.20;;
2486;SDS011;1254;49.144;8.212;2022-07-23T03:32:21;13.73;;;12.50;;
2486;SDS011;1254;49.144;8.212;2022-07-23T03:34:48;13.27;;;12.10;;
2486;SDS011;1254;49.144;8.212;2022-07-23T03:37:15;11.93;;;11.03;;
2486;SDS011;1254;49.144;8.212;2022-07-23T03:39:42;12.73;;;11.50;;
2486;SDS011;1254;49.144;8.212;2022-07-23T03:42:09;13.10;;;11.80;;
2486;SDS011;1254;49.144;8.212;2022-07-23T03:44:36;13.47;;;12.47;;
2486;SDS011;1254;49.144;8.212;2022-07-23T03:47:03;14.17;;;12.90;;
2486;SDS011;1254;49.144;8.212;2022-07-23T03:49:31;12.20;;;11.20;;
2486;SDS011;1254;49.144;8.212;2022-07-23T03:51:58;13.07;;;12.07;;
2486;SDS011;1254;49.144;8.212;2022-07-23T03:54:25;13.67;;;12.60;;
2486;SDS011;1254;49.144;8.212;2022-07-23T03:56:52;12.53;;;11.47;;
2486;SDS011;1254;49.144;8.212;2022-07-23T03:59:18;12.70;;;11.50;;
2486;SDS011;1254;49.144;8.212;2022-07-23T04:01:45;11.90;;;10.90;;
2486;SDS011;1254;49.144;8.212;2022-07-23T04:04:11;13.03;;;12.03;;
2486;SDS011;1254;49.144;8.212;2022-07-23T04:06:37;13.53;;;12.23;;
2486;SDS011;1254;49.144;8.212;2022-07-23T04:09:04;12.87;;;11.77;;
2486;SDS011;1254;49.144;8.212;2022-07-23T04:11:30;12.47;;;11.23;;
2486;SDS011;1254;49.144;8.212;2022-07-23T04:13:57;12.07;;;10.87;;
2486;SDS011;1254;49.144;8.212;2022-07-23T04:16:23;12.87;;;11.77;;
2486;SDS011;1254;49.144;8.212;2022-07-23T04:18:49;14.50;;;12.47;;
2486;SDS011;1254;49.144;8.212;2022-07-23T04:21:16;12.40;;;11.40;;
2486;SDS011;1254;49.144;8.212;2022-07-23T04:23:42;13.03;;;11.37;;
2486;SDS011;1254;49.144;8.212;2022-07-23T04:26:09;12.83;;;11.70;;
2486;SDS011;1254;49.144;8.212;2022-07-23T04:28:35;12.17;;;11.17;;
2486;SDS011;1254;49.144;8.212;2022-07-23T04:31:01;12.17;;;10.93;;
2486;SDS011;1254;49.144;8.212;2022-07-23T04:33:28;13.03;;;12.13;;
2486;SDS011;1254;49.144;8.212;2022-07-23T04:35:54;12.10;;;11.10;;
2486;SDS011;1254;49.144;8.212;2022-07-23T04:38:21;13.27;;;11.90;;
2486;SDS011;1254;49.144;8.212;2022-07-23T04:40:47;13.40;;;12.30;;
2486;SDS011;1254;49.144;8.212;2022-07-23T04:43:13;12.80;;;11.53;;
2486;SDS011;1254;49.144;8.212;2022-07-23T04:45:40;13.70;;;12.50;;
2486;SDS011;1254;49.144;8.212;2022-07-23T04:48:06;13.40;;;11.93;;
2486;SDS011;1254;49.144;8.212;2022-07-23T04:50:33;12.67;;;11.53;;
2486;SDS011;1254;49.144;8.212;2022-07-23T04:52:59;13.50;;;12.17;;
2486;SDS011;1254;49.144;8.212;2022-07-23T04:55:26;11.90;;;10.80;;
2486;SDS011;1254;49.144;8.212;2022-07-23T04:57:52;13.20;;;12.10;;
2486;SDS011;1254;49.144;8.212;2022-07-23T05:00:18;13.07;;;11.93;;
2486;SDS011;1254;49.144;8.212;2022-07-23T05:02:45;12.23;;;11.27;;
2486;SDS011;1254;49.144;8.212;2022-07-23T05:05:11;12.70;;;11.63;;
2486;SDS011;1254;49.144;8.212;2022-07-23T05:07:38;12.73;;;11.60;;
2486;SDS011;1254;49.144;8.212;2022-07-23T05:10:05;13.50;;;12.27;;
2486;SDS011;1254;49.144;8.212;2022-07-23T05:12:31;13.07;;;12.03;;
2486;SDS011;1254;49.144;8.212;2022-07-23T05:14:58;13.80;;;12.70;;
2486;SDS011;1254;49.144;8.212;2022-07-23T05:17:25;13.17;;;12.17;;
2486;SDS011;1254;49.144;8.212;2022-07-23T05:19:51;13.30;;;12.10;;
2486;SDS011;1254;49.144;8.212;2022-07-23T05:22:18;13.30;;;12.10;;
2486;SDS011;1254;49.144;8.212;2022-07-23T05:24:44;14.23;;;13.10;;
2486;SDS011;1254;49.144;8.212;2022-07-23T05:27:10;16.23;;;14.87;;
2486;SDS011;1254;49.144;8.212;2022-07-23T05:29:37;14.40;;;13.03;;
2486;SDS011;1254;49.144;8.212;2022-07-23T05:32:03;13.53;;;12.33;;
2486;SDS011;1254;49.144;8.212;2022-07-23T05:34:30;14.37;;;13.07;;
2486;SDS011;1254;49.144;8.212;2022-07-23T05:36:56;13.03;;;11.83;;
2486;SDS011;1254;49.144;8.212;2022-07-23T05:39:23;15.33;;;12.40;;
2486;SDS011;1254;49.144;8.212;2022-07-23T05:41:49;14.60;;;13.20;;
2486;SDS011;1254;49.144;8.212;2022-07-23T05:44:16;12.53;;;11.57;;
2486;SDS011;1254;49.144;8.212;2022-07-23T05:46:42;13.10;;;12.03;;
2486;SDS011;1254;49.144;8.212;2022-07-23T05:49:08;12.87;;;11.80;;
2486;SDS011;1254;49.144;8.212;2022-07-23T05:51:35;15.20;;;13.63;;
2486;SDS011;1254;49.144;8.212;2022-07-23T05:54:01;14.87;;;13.57;;
2486;SDS011;1254;49.144;8.212;2022-07-23T05:56:28;14.97;;;13.47;;
2486;SDS011;1254;49.144;8.212;2022-07-23T05:58:54;16.57;;;14.80;;
2486;SDS011;1254;49.144;8.212;2022-07-23T06:01:21;15.20;;;13.70;;
2486;SDS011;1254;49.144;8.212;2022-07-23T06:03:47;15.70;;;14.23;;
2486;SDS011;1254;49.144;8.212;2022-07-23T06:06:13;13.73;;;12.70;;
2486;SDS011;1254;49.144;8.212;2022-07-23T06:08:40;14.80;;;13.60;;
2486;SDS011;1254;49.144;8.212;2022-07-23T06:11:06;14.77;;;13.37;;
2486;SDS011;1254;49.144;8.212;2022-07-23T06:13:33;21.67;;;19.77;;
2486;SDS011;1254;49.144;8.212;2022-07-23T06:15:59;14.53;;;13.27;;
2486;SDS011;1254;49.144;8.212;2022-07-23T06:18:25;15.50;;;14.00;;
2486;SDS011;1254;49.144;8.212;2022-07-23T06:20:52;14.67;;;13.47;;
2486;SDS011;1254;49.144;8.212;2022-07-23T06:23:18;15.17;;;13.73;;
2486;SDS011;1254;49.144;8.212;2022-07-23T06:25:45;17.53;;;15.80;;
2486;SDS011;1254;49.144;8.212;2022-07-23T06:28:11;14.73;;;13.33;;
2486;SDS011;1254;49.144;8.212;2022-07-23T06:30:38;15.77;;;14.47;;
2486;SDS011;1254;49.144;8.212;2022-07-23T06:33:04;17.07;;;15.40;;
2486;SDS011;1254;49.144;8.212;2022-07-23T06:35:31;16.00;;;14.77;;
2486;SDS011;1254;49.144;8.212;2022-07-23T06:37:59;15.50;;;14.20;;
2486;SDS011;1254;49.144;8.212;2022-07-23T06:40:26;15.73;;;14.23;;
2486;SDS011;1254;49.144;8.212;2022-07-23T06:42:52;14.77;;;13.60;;
2486;SDS011;1254;49.144;8.212;2022-07-23T06:45:18;15.13;;;13.83;;
2486;SDS011;1254;49.144;8.212;2022-07-23T06:47:45;14.50;;;13.40;;
2486;SDS011;1254;49.144;8.212;2022-07-23T06:50:11;15.07;;;13.87;;
2486;SDS011;1254;49.144;8.212;2022-07-23T06:52:38;16.17;;;14.83;;
2486;SDS011;1254;49.144;8.212;2022-07-23T06:55:04;14.93;;;13.53;;
2486;SDS011;1254;49.144;8.212;2022-07-23T06:57:31;14.90;;;13.50;;
2486;SDS011;1254;49.144;8.212;2022-07-23T06:59:58;15.40;;;13.77;;
2486;SDS011;1254;49.144;8.212;2022-07-23T07:02:24;14.97;;;13.57;;
2486;SDS011;1254;49.144;8.212;2022-07-23T07:04:50;14.77;;;13.57;;
2486;SDS011;1254;49.144;8.212;2022-07-23T07:07:17;15.17;;;13.87;;
2486;SDS011;1254;49.144;8.212;2022-07-23T07:09:43;15.13;;;12.33;;
2486;SDS011;1254;49.144;8.212;2022-07-23T07:12:10;15.00;;;13.63;;
2486;SDS011;1254;49.144;8.212;2022-07-23T07:14:37;13.97;;;12.60;;
2486;SDS011;1254;49.144;8.212;2022-07-23T07:17:04;13.87;;;12.57;;
2486;SDS011;1254;49.144;8.212;2022-07-23T07:19:30;13.73;;;12.43;;
2486;SDS011;1254;49.144;8.212;2022-07-23T07:21:57;13.87;;;12.70;;
2486;SDS011;1254;49.144;8.212;2022-07-23T07:24:23;19.10;;;12.20;;
2486;SDS011;1254;49.144;8.212;2022-07-23T07:26:49;11.90;;;10.70;;
2486;SDS011;1254;49.144;8.212;2022-07-23T07:29:16;12.30;;;11.20;;
2486;SDS011;1254;49.144;8.212;2022-07-23T07:31:42;13.33;;;12.13;;
2486;SDS011;1254;49.144;8.212;2022-07-23T07:34:09;13.07;;;11.73;;
2486;SDS011;1254;49.144;8.212;2022-07-23T07:36:36;12.20;;;11.10;;
2486;SDS011;1254;49.144;8.212;2022-07-23T07:39:03;16.90;;;12.00;;
2486;SDS011;1254;49.144;8.212;2022-07-23T07:41:31;13.87;;;12.73;;
2486;SDS011;1254;49.144;8.212;2022-07-23T07:43:57;13.37;;;12.13;;
2486;SDS011;1254;49.144;8.212;2022-07-23T07:46:24;13.13;;;11.87;;
2486;SDS011;1254;49.144;8.212;2022-07-23T07:48:53;12.23;;;11.23;;
2486;SDS011;1254;49.144;8.212;2022-07-23T07:51:19;12.40;;;11.10;;
2486;SDS011;1254;49.144;8.212;2022-07-23T07:53:46;12.37;;;11.07;;
2486;SDS011;1254;49.144;8.212;2022-07-23T07:56:12;16.00;;;12.00;;
2486;SDS011;1254;49.144;8.212;2022-07-23T07:58:39;11.90;;;10.67;;
2486;SDS011;1254;49.144;8.212;2022-07-23T08:01:05;14.07;;;12.70;;
2486;SDS011;1254;49.144;8.212;2022-07-23T08:03:32;14.43;;;13.13;;
2486;SDS011;1254;49.144;8.212;2022-07-23T08:05:58;13.37;;;11.97;;
2486;SDS011;1254;49.144;8.212;2022-07-23T08:08:25;13.10;;;12.20;;
2486;SDS011;1254;49.144;8.212;2022-07-23T08:10:51;18.33;;;14.63;;
2486;SDS011;1254;49.144;8.212;2022-07-23T08:13:18;16.47;;;13.73;;
2486;SDS011;1254;49.144;8.212;2022-07-23T08:15:44;14.93;;;13.43;;
2486;SDS011;1254;49.144;8.212;2022-07-23T08:18:11;15.67;;;14.27;;
2486;SDS011;1254;49.144;8.212;2022-07-23T08:20:38;15.40;;;13.90;;
2486;SDS011;1254;49.144;8.212;2022-07-23T08:23:06;16.30;;;14.17;;
2486;SDS011;1254;49.144;8.212;2022-07-23T08:25:39;17.50;;;13.27;;
2486;SDS011;1254;49.144;8.212;2022-07-23T08:28:07;14.77;;;13.27;;
2486;SDS011;1254;49.144;8.212;2022-07-23T08:30:36;15.30;;;13.90;;
2486;SDS011;1254;49.144;8.212;2022-07-23T08:33:04;16.47;;;14.87;;
2486;SDS011;1254;49.144;8.212;2022-07-23T08:35:34;15.67;;;13.73;;
2486;SDS011;1254;49.144;8.212;2022-07-23T08:38:03;16.90;;;15.13;;
2486;SDS011;1254;49.144;8.212;2022-07-23T08:40:32;15.83;;;14.50;;
2486;SDS011;1254;49.144;8.212;2022-07-23T08:43:01;14.17;;;12.97;;
2486;SDS011;1254;49.144;8.212;2022-07-23T08:45:38;15.57;;;13.83;;
2486;SDS011;1254;49.144;8.212;2022-07-23T08:48:07;16.13;;;14.63;;
2486;SDS011;1254;49.144;8.212;2022-07-23T08:50:35;14.70;;;13.50;;
2486;SDS011;1254;49.144;8.212;2022-07-23T08:53:07;24.90;;;14.70;;
2486;SDS011;1254;49.144;8.212;2022-07-23T08:55:33;15.73;;;14.30;;
2486;SDS011;1254;49.144;8.212;2022-07-23T08:58:00;18.00;;;14.63;;
2486;SDS011;1254;49.144;8.212;2022-07-23T09:00:27;14.70;;;13.50;;
2486;SDS011;1254;49.144;8.212;2022-07-23T09:02:55;15.70;;;14.30;;
2486;SDS011;1254;49.144;8.212;2022-07-23T09:05:21;18.10;;;14.17;;
2486;SDS011;1254;49.144;8.212;2022-07-23T09:08:07;17.60;;;14.93;;
2486;SDS011;1254;49.144;8.212;2022-07-23T09:10:49;15.50;;;13.97;;
2486;SDS011;1254;49.144;8.212;2022-07-23T09:13:25;16.50;;;12.43;;
2486;SDS011;1254;49.144;8.212;2022-07-23T09:19:05;14.63;;;13.23;;
2486;SDS011;1254;49.144;8.212;2022-07-23T09:21:33;14.70;;;12.97;;
2486;SDS011;1254;49.144;8.212;2022-07-23T09:24:08;15.10;;;12.70;;
2486;SDS011;1254;49.144;8.212;2022-07-23T09:26:43;13.80;;;12.40;;
2486;SDS011;1254;49.144;8.212;2022-07-23T09:29:23;14.80;;;13.20;;
2486;SDS011;1254;49.144;8.212;2022-07-23T09:31:59;12.60;;;11.70;;
2486;SDS011;1254;49.144;8.212;2022-07-23T09:34:29;14.03;;;12.93;;
2486;SDS011;1254;49.144;8.212;2022-07-23T09:37:20;13.83;;;12.73;;
2486;SDS011;1254;49.144;8.212;2022-07-23T09:39:46;12.73;;;11.47;;
2486;SDS011;1254;49.144;8.212;2022-07-23T09:42:16;11.47;;;10.47;;
2486;SDS011;1254;49.144;8.212;2022-07-23T09:44:44;12.87;;;11.57;;
2486;SDS011;1254;49.144;8.212;2022-07-23T09:47:16;12.10;;;11.17;;
2486;SDS011;1254;49.144;8.212;2022-07-23T09:52:33;13.63;;;12.43;;
2486;SDS011;1254;49.144;8.212;2022-07-23T09:55:08;13.20;;;12.00;;
2486;SDS011;1254;49.144;8.212;2022-07-23T09:57:35;22.40;;;11.30;;
2486;SDS011;1254;49.144;8.212;2022-07-23T10:00:03;12.07;;;11.17;;
2486;SDS011;1254;49.144;8.212;2022-07-23T10:02:32;13.03;;;11.47;;
2486;SDS011;1254;49.144;8.212;2022-07-23T10:05:00;13.20;;;12.10;;
2486;SDS011;1254;49.144;8.212;2022-07-23T10:07:28;14.43;;;13.10;;
2486;SDS011;1254;49.144;8.212;2022-07-23T10:09:59;14.37;;;13.07;;
2486;SDS011;1254;49.144;8.212;2022-07-23T10:12:26;22.43;;;13.17;;
2486;SDS011;1254;49.144;8.212;2022-07-23T10:14:53;13.63;;;12.47;;
2486;SDS011;1254;49.144;8.212;2022-07-23T10:17:20;13.50;;;12.30;;
2486;SDS011;1254;49.144;8.212;2022-07-23T10:19:46;14.37;;;13.17;;
2486;SDS011;1254;49.144;8.212;2022-07-23T10:22:14;12.10;;;11.20;;
2486;SDS011;1254;49.144;8.212;2022-07-23T10:24:49;13.40;;;12.10;;
2486;SDS011;1254;49.144;8.212;2022-07-23T10:30:16;16.27;;;14.70;;
2486;SDS011;1254;49.144;8.212;2022-07-23T10:36:12;12.20;;;11.33;;
2486;SDS011;1254;49.144;8.212;2022-07-23T10:41:38;12.83;;;11.80;;
2486;SDS011;1254;49.144;8.212;2022-07-23T10:44:06;14.27;;;13.10;;
2486;SDS011;1254;49.144;8.212;2022-07-23T10:49:38;11.83;;;10.83;;
2486;SDS011;1254;49.144;8.212;2022-07-23T10:57:08;13.00;;;11.80;;
2486;SDS011;1254;49.144;8.212;2022-07-23T11:02:28;12.20;;;11.20;;
2486;SDS011;1254;49.144;8.212;2022-07-23T11:05:00;12.23;;;11.03;;
2486;SDS011;1254;49.144;8.212;2022-07-23T11:10:32;12.87;;;11.93;;
2486;SDS011;1254;49.144;8.212;2022-07-23T11:32:00;11.90;;;10.80;;
2486;SDS011;1254;49.144;8.212;2022-07-23T11:34:32;11.53;;;10.60;;
2486;SDS011;1254;49.144;8.212;2022-07-23T11:37:05;12.80;;;11.60;;
2486;SDS011;1254;49.144;8.212;2022-07-23T11:39:33;13.17;;;12.10;;
2486;SDS011;1254;49.144;8.212;2022-07-23T11:42:01;13.27;;;11.40;;
2486;SDS011;1254;49.144;8.212;2022-07-23T11:44:33;12.60;;;11.70;;
2486;SDS011;1254;49.144;8.212;2022-07-23T11:47:10;12.27;;;11.57;;
2486;SDS011;1254;49.144;8.212;2022-07-23T11:49:51;12.50;;;11.60;;
2486;SDS011;1254;49.144;8.212;2022-07-23T11:52:22;12.93;;;12.03;;
2486;SDS011;1254;49.144;8.212;2022-07-23T11:54:53;12.57;;;11.67;;
2486;SDS011;1254;49.144;8.212;2022-07-23T11:57:29;11.67;;;10.87;;
2486;SDS011;1254;49.144;8.212;2022-07-23T11:59:58;12.27;;;11.07;;
2486;SDS011;1254;49.144;8.212;2022-07-23T12:02:47;12.90;;;11.90;;
2486;SDS011;1254;49.144;8.212;2022-07-23T12:05:16;11.63;;;10.83;;
2486;SDS011;1254;49.144;8.212;2022-07-23T12:07:44;11.77;;;10.80;;
2486;SDS011;1254;49.144;8.212;2022-07-23T12:12:53;12.03;;;11.27;;
2486;SDS011;1254;49.144;8.212;2022-07-23T12:15:31;12.93;;;12.13;;
2486;SDS011;1254;49.144;8.212;2022-07-23T12:18:00;12.20;;;11.40;;
2486;SDS011;1254;49.144;8.212;2022-07-23T12:20:36;11.70;;;11.00;;
2486;SDS011;1254;49.144;8.212;2022-07-23T12:23:09;11.70;;;11.00;;
2486;SDS011;1254;49.144;8.212;2022-07-23T12:25:37;11.80;;;11.10;;
2486;SDS011;1254;49.144;8.212;2022-07-23T12:28:10;13.07;;;12.00;;
2486;SDS011;1254;49.144;8.212;2022-07-23T12:33:05;12.50;;;11.77;;
2486;SDS011;1254;49.144;8.212;2022-07-23T12:35:34;13.90;;;12.70;;
2486;SDS011;1254;49.144;8.212;2022-07-23T12:38:18;13.27;;;12.10;;
2486;SDS011;1254;49.144;8.212;2022-07-23T12:40:52;12.70;;;11.90;;
2486;SDS011;1254;49.144;8.212;2022-07-23T12:43:24;12.90;;;12.10;;
2486;SDS011;1254;49.144;8.212;2022-07-23T12:45:53;12.93;;;12.03;;
2486;SDS011;1254;49.144;8.212;2022-07-23T12:48:28;12.13;;;11.43;;
2486;SDS011;1254;49.144;8.212;2022-07-23T12:51:00;12.90;;;12.10;;
2486;SDS011;1254;49.144;8.212;2022-07-23T12:56:04;13.87;;;12.83;;
2486;SDS011;1254;49.144;8.212;2022-07-23T12:58:39;12.77;;;12.07;;
2486;SDS011;1254;49.144;8.212;2022-07-23T13:01:07;13.07;;;12.20;;
2486;SDS011;1254;49.144;8.212;2022-07-23T13:03:36;13.97;;;13.07;;
2486;SDS011;1254;49.144;8.212;2022-07-23T13:06:05;13.70;;;12.90;;
2486;SDS011;1254;49.144;8.212;2022-07-23T13:08:37;12.03;;;11.33;;
2486;SDS011;1254;49.144;8.212;2022-07-23T13:11:05;14.03;;;13.13;;
2486;SDS011;1254;49.144;8.212;2022-07-23T13:13:33;13.10;;;12.30;;
2486;SDS011;1254;49.144;8.212;2022-07-23T13:16:01;13.17;;;12.40;;
2486;SDS011;1254;49.144;8.212;2022-07-23T13:18:29;13.40;;;12.50;;
2486;SDS011;1254;49.144;8.212;2022-07-23T13:20:56;13.10;;;12.40;;
2486;SDS011;1254;49.144;8.212;2022-07-23T13:23:23;13.60;;;12.80;;
2486;SDS011;1254;49.144;8.212;2022-07-23T13:25:50;12.87;;;12.17;;
2486;SDS011;1254;49.144;8.212;2022-07-23T13:28:17;13.37;;;12.67;;
2486;SDS011;1254;49.144;8.212;2022-07-23T13:30:45;12.80;;;12.00;;
2486;SDS011;1254;49.144;8.212;2022-07-23T13:33:13;13.53;;;12.70;;
2486;SDS011;1254;49.144;8.212;2022-07-23T13:35:40;13.53;;;12.73;;
2486;SDS011;1254;49.144;8.212;2022-07-23T13:38:06;13.97;;;13.07;;
2486;SDS011;1254;49.144;8.212;2022-07-23T13:40:34;13.37;;;12.50;;
2486;SDS011;1254;49.144;8.212;2022-07-23T13:43:05;13.50;;;12.53;;
2486;SDS011;1254;49.144;8.212;2022-07-23T13:45:33;12.30;;;11.60;;
2486;SDS011;1254;49.144;8.212;2022-07-23T13:48:00;13.27;;;12.50;;
2486;SDS011;1254;49.144;8.212;2022-07-23T13:50:26;13.87;;;12.47;;
2486;SDS011;1254;49.144;8.212;2022-07-23T13:52:53;13.00;;;12.30;;
2486;SDS011;1254;49.144;8.212;2022-07-23T13:55:19;13.20;;;12.27;;
2486;SDS011;1254;49.144;8.212;2022-07-23T13:57:46;12.67;;;11.87;;
2486;SDS011;1254;49.144;8.212;2022-07-23T14:00:12;13.43;;;12.23;;
2486;SDS011;1254;49.144;8.212;2022-07-23T14:02:40;12.57;;;11.77;;
2486;SDS011;1254;49.144;8.212;2022-07-23T14:05:07;12.80;;;11.73;;
2486;SDS011;1254;49.144;8.212;2022-07-23T14:07:35;12.73;;;11.83;;
2486;SDS011;1254;49.144;8.212;2022-07-23T14:10:03;13.33;;;12.23;;
2486;SDS011;1254;49.144;8.212;2022-07-23T14:12:30;13.27;;;12.37;;
2486;SDS011;1254;49.144;8.212;2022-07-23T14:14:57;13.00;;;12.00;;
2486;SDS011;1254;49.144;8.212;2022-07-23T14:17:24;12.87;;;12.03;;
2486;SDS011;1254;49.144;8.212;2022-07-23T14:19:50;12.40;;;11.40;;
2486;SDS011;1254;49.144;8.212;2022-07-23T14:22:17;12.10;;;11.30;;
2486;SDS011;1254;49.144;8.212;2022-07-23T14:24:44;13.07;;;12.27;;
2486;SDS011;1254;49.144;8.212;2022-07-23T14:27:10;12.43;;;11.53;;
2486;SDS011;1254;49.144;8.212;2022-07-23T14:29:36;12.70;;;11.53;;
2486;SDS011;1254;49.144;8.212;2022-07-23T14:32:03;12.20;;;11.50;;
2486;SDS011;1254;49.144;8.212;2022-07-23T14:34:30;13.57;;;12.57;;
2486;SDS011;1254;49.144;8.212;2022-07-23T14:36:57;13.40;;;12.30;;
2486;SDS011;1254;49.144;8.212;2022-07-23T14:39:24;14.23;;;13.37;;
2486;SDS011;1254;49.144;8.212;2022-07-23T14:41:50;13.30;;;12.60;;
2486;SDS011;1254;49.144;8.212;2022-07-23T14:44:17;12.17;;;11.37;;
2486;SDS011;1254;49.144;8.212;2022-07-23T14:46:43;14.37;;;13.47;;
2486;SDS011;1254;49.144;8.212;2022-07-23T14:49:10;12.10;;;11.20;;
2486;SDS011;1254;49.144;8.212;2022-07-23T14:51:37;12.90;;;11.90;;
2486;SDS011;1254;49.144;8.212;2022-07-23T14:54:03;13.67;;;12.67;;
2486;SDS011;1254;49.144;8.212;2022-07-23T14:56:30;13.63;;;12.70;;
2486;SDS011;1254;49.144;8.212;2022-07-23T14:58:59;14.13;;;13.20;;
2486;SDS011;1254;49.144;8.212;2022-07-23T15:01:25;13.60;;;12.70;;
2486;SDS011;1254;49.144;8.212;2022-07-23T15:03:52;13.80;;;13.00;;
2486;SDS011;1254;49.144;8.212;2022-07-23T15:06:18;12.73;;;11.73;;
2486;SDS011;1254;49.144;8.212;2022-07-23T15:08:46;12.30;;;11.60;;
2486;SDS011;1254;49.144;8.212;2022-07-23T15:11:12;13.33;;;12.33;;
2486;SDS011;1254;49.144;8.212;2022-07-23T15:13:39;13.50;;;12.60;;
2486;SDS011;1254;49.144;8.212;2022-07-23T15:16:06;13.33;;;12.53;;
2486;SDS011;1254;49.144;8.212;2022-07-23T15:18:33;13.77;;;12.97;;
2486;SDS011;1254;49.144;8.212;2022-07-23T15:21:01;14.03;;;12.93;;
2486;SDS011;1254;49.144;8.212;2022-07-23T15:23:28;13.30;;;12.40;;
2486;SDS011;1254;49.144;8.212;2022-07-23T15:25:55;13.00;;;12.10;;
2486;SDS011;1254;49.144;8.212;2022-07-23T15:28:22;14.00;;;13.20;;
2486;SDS011;1254;49.144;8.212;2022-07-23T15:30:50;13.00;;;12.20;;
2486;SDS011;1254;49.144;8.212;2022-07-23T15:33:18;14.10;;;12.90;;
2486;SDS011;1254;49.144;8.212;2022-07-23T15:35:45;14.40;;;13.10;;
2486;SDS011;1254;49.144;8.212;2022-07-23T15:38:12;14.60;;;13.30;;
2486;SDS011;1254;49.144;8.212;2022-07-23T15:40:39;13.50;;;12.60;;
2486;SDS011;1254;49.144;8.212;2022-07-23T15:43:06;13.80;;;12.90;;
2486;SDS011;1254;49.144;8.212;2022-07-23T15:45:32;13.83;;;13.03;;
2486;SDS011;1254;49.144;8.212;2022-07-23T15:47:59;12.97;;;12.27;;